sensor_id;sensor_type;location;lat;lon;timestamp;temperature;humidity
11067;DHT22;29763;50.904;5.530;2023-04-08T00:00:48;8.60;99.90
11067;DHT22;29763;50.904;5.530;2023-04-08T00:03:15;8.50;99.90
11067;DHT22;29763;50.904;5.530;2023-04-08T00:05:41;8.60;99.90
11067;DHT22;29763;50.904;5.530;2023-04-08T00:08:06;8.50;99.90
11067;DHT22;29763;50.904;5.530;2023-04-08T00:10:36;8.50;99.90
11067;DHT22;29763;50.904;5.530;2023-04-08T00:13:02;8.50;99.90
11067;DHT22;29763;50.904;5.530;2023-04-08T00:15:27;8.50;99.90
11067;DHT22;29763;50.904;5.530;2023-04-08T00:17:55;8.50;99.90
11067;DHT22;29763;50.904;5.530;2023-04-08T00:20:22;8.50;99.90
11067;DHT22;29763;50.904;5.530;2023-04-08T00:22:49;8.50;99.90
11067;DHT22;29763;50.904;5.530;2023-04-08T00:25:14;8.50;99.90
11067;DHT22;29763;50.904;5.530;2023-04-08T00:27:40;8.40;99.90
11067;DHT22;29763;50.904;5.530;2023-04-08T00:30:07;8.40;99.90
11067;DHT22;29763;50.904;5.530;2023-04-08T00:32:34;8.40;99.90
11067;DHT22;29763;50.904;5.530;2023-04-08T00:34:59;8.50;99.90
11067;DHT22;29763;50.904;5.530;2023-04-08T00:37:27;8.50;99.90
11067;DHT22;29763;50.904;5.530;2023-04-08T00:39:52;8.40;99.90
11067;DHT22;29763;50.904;5.530;2023-04-08T00:42:19;8.40;99.90
11067;DHT22;29763;50.904;5.530;2023-04-08T00:44:46;8.40;99.90
11067;DHT22;29763;50.904;5.530;2023-04-08T00:47:12;8.40;99.90
11067;DHT22;29763;50.904;5.530;2023-04-08T00:49:38;8.40;99.90
11067;DHT22;29763;50.904;5.530;2023-04-08T00:52:04;8.40;99.90
11067;DHT22;29763;50.904;5.530;2023-04-08T00:54:30;8.40;99.90
11067;DHT22;29763;50.904;5.530;2023-04-08T00:56:57;8.40;99.90
11067;DHT22;29763;50.904;5.530;2023-04-08T00:59:26;8.40;99.90
11067;DHT22;29763;50.904;5.530;2023-04-08T01:02:13;8.40;99.90
11067;DHT22;29763;50.904;5.530;2023-04-08T01:07:14;8.40;99.90
11067;DHT22;29763;50.904;5.530;2023-04-08T01:09:45;8.40;99.90
11067;DHT22;29763;50.904;5.530;2023-04-08T01:12:17;8.40;99.90
11067;DHT22;29763;50.904;5.530;2023-04-08T01:14:47;8.40;99.90
11067;DHT22;29763;50.904;5.530;2023-04-08T01:17:14;8.40;99.90
11067;DHT22;29763;50.904;5.530;2023-04-08T01:19:43;8.40;99.90
11067;DHT22;29763;50.904;5.530;2023-04-08T01:22:22;8.40;99.90
11067;DHT22;29763;50.904;5.530;2023-04-08T01:24:58;8.40;99.90
11067;DHT22;29763;50.904;5.530;2023-04-08T01:27:27;8.40;99.90
11067;DHT22;29763;50.904;5.530;2023-04-08T01:29:56;8.40;99.90
11067;DHT22;29763;50.904;5.530;2023-04-08T01:32:23;8.40;99.90
11067;DHT22;29763;50.904;5.530;2023-04-08T01:34:49;8.40;99.90
11067;DHT22;29763;50.904;5.530;2023-04-08T01:37:16;8.40;99.90
11067;DHT22;29763;50.904;5.530;2023-04-08T01:39:42;8.40;99.90
11067;DHT22;29763;50.904;5.530;2023-04-08T01:42:09;8.40;99.90
11067;DHT22;29763;50.904;5.530;2023-04-08T01:44:36;8.40;99.90
11067;DHT22;29763;50.904;5.530;2023-04-08T01:47:02;8.40;99.90
11067;DHT22;29763;50.904;5.530;2023-04-08T01:49:29;8.40;99.90
11067;DHT22;29763;50.904;5.530;2023-04-08T01:51:57;8.40;99.90
11067;DHT22;29763;50.904;5.530;2023-04-08T01:54:23;8.40;99.90
11067;DHT22;29763;50.904;5.530;2023-04-08T01:56:50;8.40;99.90
11067;DHT22;29763;50.904;5.530;2023-04-08T01:59:20;8.40;99.90
11067;DHT22;29763;50.904;5.530;2023-04-08T02:01:48;8.40;99.90
11067;DHT22;29763;50.904;5.530;2023-04-08T02:04:15;8.40;99.90
11067;DHT22;29763;50.904;5.530;2023-04-08T02:06:41;8.40;99.90
11067;DHT22;29763;50.904;5.530;2023-04-08T02:09:07;8.30;99.90
11067;DHT22;29763;50.904;5.530;2023-04-08T02:11:32;8.30;99.90
11067;DHT22;29763;50.904;5.530;2023-04-08T02:13:59;8.30;99.90
11067;DHT22;29763;50.904;5.530;2023-04-08T02:16:33;8.30;99.90
11067;DHT22;29763;50.904;5.530;2023-04-08T02:19:19;8.30;99.90
11067;DHT22;29763;50.904;5.530;2023-04-08T02:21:54;8.30;99.90
11067;DHT22;29763;50.904;5.530;2023-04-08T02:24:21;8.30;99.90
11067;DHT22;29763;50.904;5.530;2023-04-08T02:26:49;8.30;99.90
11067;DHT22;29763;50.904;5.530;2023-04-08T02:29:16;8.30;99.90
11067;DHT22;29763;50.904;5.530;2023-04-08T02:31:43;8.30;99.90
11067;DHT22;29763;50.904;5.530;2023-04-08T02:34:10;8.30;99.90
11067;DHT22;29763;50.904;5.530;2023-04-08T02:36:37;8.30;99.90
11067;DHT22;29763;50.904;5.530;2023-04-08T02:39:05;8.30;99.90
11067;DHT22;29763;50.904;5.530;2023-04-08T02:41:31;8.30;99.90
11067;DHT22;29763;50.904;5.530;2023-04-08T02:43:57;8.20;99.90
11067;DHT22;29763;50.904;5.530;2023-04-08T02:46:23;8.20;99.90
11067;DHT22;29763;50.904;5.530;2023-04-08T02:48:49;8.20;99.90
11067;DHT22;29763;50.904;5.530;2023-04-08T02:51:15;8.30;99.90
11067;DHT22;29763;50.904;5.530;2023-04-08T02:53:41;8.30;99.90
11067;DHT22;29763;50.904;5.530;2023-04-08T02:56:09;8.20;99.90
11067;DHT22;29763;50.904;5.530;2023-04-08T02:58:41;8.20;99.90
11067;DHT22;29763;50.904;5.530;2023-04-08T03:01:07;8.30;99.90
11067;DHT22;29763;50.904;5.530;2023-04-08T03:03:33;8.30;99.90
11067;DHT22;29763;50.904;5.530;2023-04-08T03:05:59;8.30;99.90
11067;DHT22;29763;50.904;5.530;2023-04-08T03:08:24;8.30;99.90
11067;DHT22;29763;50.904;5.530;2023-04-08T03:10:50;8.30;99.90
11067;DHT22;29763;50.904;5.530;2023-04-08T03:13:16;8.30;99.90
11067;DHT22;29763;50.904;5.530;2023-04-08T03:15:42;8.30;99.90
11067;DHT22;29763;50.904;5.530;2023-04-08T03:18:08;8.20;99.90
11067;DHT22;29763;50.904;5.530;2023-04-08T03:20:34;8.20;99.90
11067;DHT22;29763;50.904;5.530;2023-04-08T03:23:00;8.20;99.90
11067;DHT22;29763;50.904;5.530;2023-04-08T03:25:25;8.20;99.90
11067;DHT22;29763;50.904;5.530;2023-04-08T03:27:54;8.20;99.90
11067;DHT22;29763;50.904;5.530;2023-04-08T03:30:19;8.20;99.90
11067;DHT22;29763;50.904;5.530;2023-04-08T03:32:45;8.20;99.90
11067;DHT22;29763;50.904;5.530;2023-04-08T03:35:11;8.20;99.90
11067;DHT22;29763;50.904;5.530;2023-04-08T03:37:37;8.20;99.90
11067;DHT22;29763;50.904;5.530;2023-04-08T03:40:03;8.20;99.90
11067;DHT22;29763;50.904;5.530;2023-04-08T03:42:29;8.20;99.90
11067;DHT22;29763;50.904;5.530;2023-04-08T03:44:55;8.20;99.90
11067;DHT22;29763;50.904;5.530;2023-04-08T03:47:20;8.20;99.90
11067;DHT22;29763;50.904;5.530;2023-04-08T03:49:49;8.20;99.90
11067;DHT22;29763;50.904;5.530;2023-04-08T03:52:17;8.10;99.90
11067;DHT22;29763;50.904;5.530;2023-04-08T03:54:42;8.10;99.90
11067;DHT22;29763;50.904;5.530;2023-04-08T03:57:08;8.10;99.90
11067;DHT22;29763;50.904;5.530;2023-04-08T03:59:34;8.10;99.90
11067;DHT22;29763;50.904;5.530;2023-04-08T04:02:00;8.10;99.90
11067;DHT22;29763;50.904;5.530;2023-04-08T04:04:26;8.10;99.90
11067;DHT22;29763;50.904;5.530;2023-04-08T04:06:52;8.20;99.90
11067;DHT22;29763;50.904;5.530;2023-04-08T04:09:17;8.20;99.90
11067;DHT22;29763;50.904;5.530;2023-04-08T04:11:43;8.30;99.90
11067;DHT22;29763;50.904;5.530;2023-04-08T04:14:09;8.20;99.90
11067;DHT22;29763;50.904;5.530;2023-04-08T04:16:35;8.10;99.90
11067;DHT22;29763;50.904;5.530;2023-04-08T04:19:01;8.20;99.90
11067;DHT22;29763;50.904;5.530;2023-04-08T04:21:26;8.10;99.90
11067;DHT22;29763;50.904;5.530;2023-04-08T04:23:52;8.10;99.90
11067;DHT22;29763;50.904;5.530;2023-04-08T04:26:18;8.10;99.90
11067;DHT22;29763;50.904;5.530;2023-04-08T04:28:44;8.00;99.90
11067;DHT22;29763;50.904;5.530;2023-04-08T04:31:20;8.00;99.90
11067;DHT22;29763;50.904;5.530;2023-04-08T04:33:47;8.00;99.90
11067;DHT22;29763;50.904;5.530;2023-04-08T04:36:14;8.00;99.90
11067;DHT22;29763;50.904;5.530;2023-04-08T04:38:40;8.00;99.90
11067;DHT22;29763;50.904;5.530;2023-04-08T04:41:07;7.90;99.90
11067;DHT22;29763;50.904;5.530;2023-04-08T04:43:33;8.00;99.90
11067;DHT22;29763;50.904;5.530;2023-04-08T04:45:58;7.90;99.90
11067;DHT22;29763;50.904;5.530;2023-04-08T04:48:25;7.90;99.90
11067;DHT22;29763;50.904;5.530;2023-04-08T04:50:58;7.90;99.90
11067;DHT22;29763;50.904;5.530;2023-04-08T04:53:25;7.90;99.90
11067;DHT22;29763;50.904;5.530;2023-04-08T04:55:51;7.90;99.90
11067;DHT22;29763;50.904;5.530;2023-04-08T04:58:17;7.80;99.90
11067;DHT22;29763;50.904;5.530;2023-04-08T05:00:43;7.80;99.90
11067;DHT22;29763;50.904;5.530;2023-04-08T05:03:10;7.90;99.90
11067;DHT22;29763;50.904;5.530;2023-04-08T05:05:35;7.80;99.90
11067;DHT22;29763;50.904;5.530;2023-04-08T05:08:01;7.90;99.90
11067;DHT22;29763;50.904;5.530;2023-04-08T05:10:27;7.90;99.90
11067;DHT22;29763;50.904;5.530;2023-04-08T05:12:53;7.90;99.90
11067;DHT22;29763;50.904;5.530;2023-04-08T05:15:18;7.90;99.90
11067;DHT22;29763;50.904;5.530;2023-04-08T05:17:45;7.90;99.90
11067;DHT22;29763;50.904;5.530;2023-04-08T05:20:11;7.90;99.90
11067;DHT22;29763;50.904;5.530;2023-04-08T05:22:39;7.90;99.90
11067;DHT22;29763;50.904;5.530;2023-04-08T05:25:10;7.90;99.90
11067;DHT22;29763;50.904;5.530;2023-04-08T05:27:36;7.90;99.90
11067;DHT22;29763;50.904;5.530;2023-04-08T05:30:03;8.00;99.90
11067;DHT22;29763;50.904;5.530;2023-04-08T05:32:29;8.00;99.90
11067;DHT22;29763;50.904;5.530;2023-04-08T05:34:54;8.00;99.90
11067;DHT22;29763;50.904;5.530;2023-04-08T05:37:20;8.10;99.90
11067;DHT22;29763;50.904;5.530;2023-04-08T05:39:46;8.10;99.90
11067;DHT22;29763;50.904;5.530;2023-04-08T05:42:12;8.10;99.90
11067;DHT22;29763;50.904;5.530;2023-04-08T05:44:38;8.00;99.90
11067;DHT22;29763;50.904;5.530;2023-04-08T05:47:06;8.00;99.90
11067;DHT22;29763;50.904;5.530;2023-04-08T05:49:33;7.90;99.90
11067;DHT22;29763;50.904;5.530;2023-04-08T05:51:58;7.90;99.90
11067;DHT22;29763;50.904;5.530;2023-04-08T05:54:24;7.90;99.90
11067;DHT22;29763;50.904;5.530;2023-04-08T05:56:50;7.80;99.90
11067;DHT22;29763;50.904;5.530;2023-04-08T05:59:15;7.70;99.90
11067;DHT22;29763;50.904;5.530;2023-04-08T06:01:41;7.80;99.90
11067;DHT22;29763;50.904;5.530;2023-04-08T06:04:07;7.70;99.90
11067;DHT22;29763;50.904;5.530;2023-04-08T06:06:33;7.70;99.90
11067;DHT22;29763;50.904;5.530;2023-04-08T06:08:58;7.70;99.90
11067;DHT22;29763;50.904;5.530;2023-04-08T06:11:24;7.80;99.90
11067;DHT22;29763;50.904;5.530;2023-04-08T06:13:50;7.90;99.90
11067;DHT22;29763;50.904;5.530;2023-04-08T06:16:16;8.00;99.90
11067;DHT22;29763;50.904;5.530;2023-04-08T06:18:42;8.20;99.90
11067;DHT22;29763;50.904;5.530;2023-04-08T06:21:09;8.20;99.90
11067;DHT22;29763;50.904;5.530;2023-04-08T06:23:35;8.30;99.90
11067;DHT22;29763;50.904;5.530;2023-04-08T06:26:01;8.40;99.90
11067;DHT22;29763;50.904;5.530;2023-04-08T06:28:30;8.50;99.90
11067;DHT22;29763;50.904;5.530;2023-04-08T06:30:56;8.60;99.90
11067;DHT22;29763;50.904;5.530;2023-04-08T06:33:22;8.60;99.90
11067;DHT22;29763;50.904;5.530;2023-04-08T06:35:48;8.80;99.90
11067;DHT22;29763;50.904;5.530;2023-04-08T06:38:14;8.80;99.90
11067;DHT22;29763;50.904;5.530;2023-04-08T06:40:40;9.00;99.90
11067;DHT22;29763;50.904;5.530;2023-04-08T06:43:05;9.10;99.90
11067;DHT22;29763;50.904;5.530;2023-04-08T06:45:35;9.20;99.90
11067;DHT22;29763;50.904;5.530;2023-04-08T06:48:01;9.20;99.90
11067;DHT22;29763;50.904;5.530;2023-04-08T06:50:26;9.30;99.90
11067;DHT22;29763;50.904;5.530;2023-04-08T06:52:52;9.50;99.90
11067;DHT22;29763;50.904;5.530;2023-04-08T06:55:19;9.50;99.90
11067;DHT22;29763;50.904;5.530;2023-04-08T06:57:45;9.50;99.90
11067;DHT22;29763;50.904;5.530;2023-04-08T07:00:11;9.60;99.90
11067;DHT22;29763;50.904;5.530;2023-04-08T07:02:37;9.70;99.90
11067;DHT22;29763;50.904;5.530;2023-04-08T07:05:02;9.80;99.90
11067;DHT22;29763;50.904;5.530;2023-04-08T07:07:28;9.90;99.90
11067;DHT22;29763;50.904;5.530;2023-04-08T07:09:54;9.90;99.90
11067;DHT22;29763;50.904;5.530;2023-04-08T07:12:21;9.90;99.90
11067;DHT22;29763;50.904;5.530;2023-04-08T07:14:47;10.00;99.90
11067;DHT22;29763;50.904;5.530;2023-04-08T07:17:13;10.10;99.90
11067;DHT22;29763;50.904;5.530;2023-04-08T07:19:39;10.20;99.90
11067;DHT22;29763;50.904;5.530;2023-04-08T07:22:08;10.30;99.90
11067;DHT22;29763;50.904;5.530;2023-04-08T07:24:34;10.40;99.90
11067;DHT22;29763;50.904;5.530;2023-04-08T07:27:00;10.60;99.90
11067;DHT22;29763;50.904;5.530;2023-04-08T07:29:26;10.60;99.90
11067;DHT22;29763;50.904;5.530;2023-04-08T07:31:52;10.70;99.90
11067;DHT22;29763;50.904;5.530;2023-04-08T07:34:18;10.70;99.90
11067;DHT22;29763;50.904;5.530;2023-04-08T07:36:44;10.80;99.90
11067;DHT22;29763;50.904;5.530;2023-04-08T07:39:10;10.90;99.90
11067;DHT22;29763;50.904;5.530;2023-04-08T07:41:36;11.10;99.90
11067;DHT22;29763;50.904;5.530;2023-04-08T07:44:01;11.10;99.90
11067;DHT22;29763;50.904;5.530;2023-04-08T07:46:27;11.20;99.90
11067;DHT22;29763;50.904;5.530;2023-04-08T07:48:53;11.30;99.90
11067;DHT22;29763;50.904;5.530;2023-04-08T07:51:19;11.20;99.90
11067;DHT22;29763;50.904;5.530;2023-04-08T07:53:44;11.40;99.90
11067;DHT22;29763;50.904;5.530;2023-04-08T07:56:14;11.50;99.90
11067;DHT22;29763;50.904;5.530;2023-04-08T07:58:41;11.50;99.90
11067;DHT22;29763;50.904;5.530;2023-04-08T08:01:20;11.50;99.90
11067;DHT22;29763;50.904;5.530;2023-04-08T08:03:47;11.50;99.90
11067;DHT22;29763;50.904;5.530;2023-04-08T08:06:13;11.50;99.90
11067;DHT22;29763;50.904;5.530;2023-04-08T08:08:39;11.50;99.90
11067;DHT22;29763;50.904;5.530;2023-04-08T08:11:05;11.60;99.90
11067;DHT22;29763;50.904;5.530;2023-04-08T08:13:31;11.70;99.90
11067;DHT22;29763;50.904;5.530;2023-04-08T08:15:57;11.70;99.90
11067;DHT22;29763;50.904;5.530;2023-04-08T08:18:23;11.70;99.90
11067;DHT22;29763;50.904;5.530;2023-04-08T08:20:48;11.80;99.90
11067;DHT22;29763;50.904;5.530;2023-04-08T08:23:14;11.90;99.90
11067;DHT22;29763;50.904;5.530;2023-04-08T08:25:41;12.00;99.90
11067;DHT22;29763;50.904;5.530;2023-04-08T08:28:07;12.30;99.90
11067;DHT22;29763;50.904;5.530;2023-04-08T08:30:33;12.50;99.90
11067;DHT22;29763;50.904;5.530;2023-04-08T08:32:59;12.40;99.90
11067;DHT22;29763;50.904;5.530;2023-04-08T08:35:25;12.20;99.90
11067;DHT22;29763;50.904;5.530;2023-04-08T08:37:51;12.30;99.90
11067;DHT22;29763;50.904;5.530;2023-04-08T08:40:17;12.30;99.90
11067;DHT22;29763;50.904;5.530;2023-04-08T08:42:49;12.20;99.90
11067;DHT22;29763;50.904;5.530;2023-04-08T08:45:18;12.30;99.90
11067;DHT22;29763;50.904;5.530;2023-04-08T08:47:44;12.30;99.90
11067;DHT22;29763;50.904;5.530;2023-04-08T08:50:10;12.40;99.90
11067;DHT22;29763;50.904;5.530;2023-04-08T08:52:36;12.60;99.90
11067;DHT22;29763;50.904;5.530;2023-04-08T08:55:01;12.90;99.90
11067;DHT22;29763;50.904;5.530;2023-04-08T08:57:27;13.20;99.90
11067;DHT22;29763;50.904;5.530;2023-04-08T08:59:53;13.90;99.90
11067;DHT22;29763;50.904;5.530;2023-04-08T09:02:29;14.50;99.90
11067;DHT22;29763;50.904;5.530;2023-04-08T09:05:03;15.30;99.90
11067;DHT22;29763;50.904;5.530;2023-04-08T09:07:34;16.40;99.90
11067;DHT22;29763;50.904;5.530;2023-04-08T09:10:00;16.70;99.90
11067;DHT22;29763;50.904;5.530;2023-04-08T09:12:26;16.70;99.90
11067;DHT22;29763;50.904;5.530;2023-04-08T09:15:06;16.70;99.90
11067;DHT22;29763;50.904;5.530;2023-04-08T09:17:33;16.60;99.90
11067;DHT22;29763;50.904;5.530;2023-04-08T09:25:29;16.40;99.90
11067;DHT22;29763;50.904;5.530;2023-04-08T09:27:56;16.80;99.90
11067;DHT22;29763;50.904;5.530;2023-04-08T09:30:23;17.50;99.90
11067;DHT22;29763;50.904;5.530;2023-04-08T09:32:52;18.30;99.90
11067;DHT22;29763;50.904;5.530;2023-04-08T09:35:19;18.80;99.90
11067;DHT22;29763;50.904;5.530;2023-04-08T09:37:45;19.50;99.90
11067;DHT22;29763;50.904;5.530;2023-04-08T09:40:11;20.20;99.90
11067;DHT22;29763;50.904;5.530;2023-04-08T09:42:39;19.90;99.90
11067;DHT22;29763;50.904;5.530;2023-04-08T09:45:06;20.60;99.90
11067;DHT22;29763;50.904;5.530;2023-04-08T09:47:56;20.70;99.90
11067;DHT22;29763;50.904;5.530;2023-04-08T09:50:35;20.40;99.90
11067;DHT22;29763;50.904;5.530;2023-04-08T09:53:10;19.60;99.90
11067;DHT22;29763;50.904;5.530;2023-04-08T09:55:38;18.40;99.90
11067;DHT22;29763;50.904;5.530;2023-04-08T09:58:15;17.20;99.90
11067;DHT22;29763;50.904;5.530;2023-04-08T10:00:49;16.40;99.90
11067;DHT22;29763;50.904;5.530;2023-04-08T10:03:39;15.70;99.90
11067;DHT22;29763;50.904;5.530;2023-04-08T10:06:07;15.20;99.90
11067;DHT22;29763;50.904;5.530;2023-04-08T10:08:34;15.00;99.90
11067;DHT22;29763;50.904;5.530;2023-04-08T10:11:00;15.00;99.90
11067;DHT22;29763;50.904;5.530;2023-04-08T10:13:26;15.20;99.90
11067;DHT22;29763;50.904;5.530;2023-04-08T10:18:41;16.10;99.90
11067;DHT22;29763;50.904;5.530;2023-04-08T10:21:40;17.00;99.90
11067;DHT22;29763;50.904;5.530;2023-04-08T10:24:12;18.00;99.90
11067;DHT22;29763;50.904;5.530;2023-04-08T10:26:40;18.50;99.90
11067;DHT22;29763;50.904;5.530;2023-04-08T10:31:47;18.70;99.90
11067;DHT22;29763;50.904;5.530;2023-04-08T10:36:45;18.50;99.90
11067;DHT22;29763;50.904;5.530;2023-04-08T10:39:14;18.40;99.90
11067;DHT22;29763;50.904;5.530;2023-04-08T10:41:44;17.60;99.90
11067;DHT22;29763;50.904;5.530;2023-04-08T10:44:17;17.20;99.90
11067;DHT22;29763;50.904;5.530;2023-04-08T10:46:44;16.70;99.90
11067;DHT22;29763;50.904;5.530;2023-04-08T10:49:11;16.70;99.90
11067;DHT22;29763;50.904;5.530;2023-04-08T10:51:38;17.00;99.90
11067;DHT22;29763;50.904;5.530;2023-04-08T10:54:09;17.00;99.90
11067;DHT22;29763;50.904;5.530;2023-04-08T10:56:43;16.50;99.90
11067;DHT22;29763;50.904;5.530;2023-04-08T10:59:10;16.20;99.90
11067;DHT22;29763;50.904;5.530;2023-04-08T11:01:39;16.10;99.90
11067;DHT22;29763;50.904;5.530;2023-04-08T11:04:10;16.00;99.90
11067;DHT22;29763;50.904;5.530;2023-04-08T11:06:37;16.20;99.90
11067;DHT22;29763;50.904;5.530;2023-04-08T11:09:03;16.40;99.90
11067;DHT22;29763;50.904;5.530;2023-04-08T11:11:32;16.60;99.90
11067;DHT22;29763;50.904;5.530;2023-04-08T11:13:57;16.80;99.90
11067;DHT22;29763;50.904;5.530;2023-04-08T11:16:23;16.30;99.90
11067;DHT22;29763;50.904;5.530;2023-04-08T11:18:52;16.10;99.90
11067;DHT22;29763;50.904;5.530;2023-04-08T11:21:18;15.90;99.90
11067;DHT22;29763;50.904;5.530;2023-04-08T11:23:47;16.00;99.90
11067;DHT22;29763;50.904;5.530;2023-04-08T11:26:14;15.90;99.90
11067;DHT22;29763;50.904;5.530;2023-04-08T11:28:40;16.60;99.90
11067;DHT22;29763;50.904;5.530;2023-04-08T11:31:06;16.90;99.90
11067;DHT22;29763;50.904;5.530;2023-04-08T11:33:33;16.80;99.90
11067;DHT22;29763;50.904;5.530;2023-04-08T11:36:01;16.20;99.90
11067;DHT22;29763;50.904;5.530;2023-04-08T11:38:30;16.10;99.90
11067;DHT22;29763;50.904;5.530;2023-04-08T11:40:57;15.90;99.90
11067;DHT22;29763;50.904;5.530;2023-04-08T11:43:24;15.80;99.90
11067;DHT22;29763;50.904;5.530;2023-04-08T11:45:50;15.80;99.90
11067;DHT22;29763;50.904;5.530;2023-04-08T11:48:16;16.50;99.90
11067;DHT22;29763;50.904;5.530;2023-04-08T11:50:43;17.60;99.90
11067;DHT22;29763;50.904;5.530;2023-04-08T11:53:24;18.70;99.90
11067;DHT22;29763;50.904;5.530;2023-04-08T11:55:50;17.80;99.90
11067;DHT22;29763;50.904;5.530;2023-04-08T11:58:16;17.40;99.90
11067;DHT22;29763;50.904;5.530;2023-04-08T12:00:43;17.10;99.90
11067;DHT22;29763;50.904;5.530;2023-04-08T12:03:10;17.60;99.90
11067;DHT22;29763;50.904;5.530;2023-04-08T12:05:37;18.00;99.90
11067;DHT22;29763;50.904;5.530;2023-04-08T12:08:03;18.60;99.90
11067;DHT22;29763;50.904;5.530;2023-04-08T12:10:29;18.30;99.90
11067;DHT22;29763;50.904;5.530;2023-04-08T12:12:55;18.50;99.90
11067;DHT22;29763;50.904;5.530;2023-04-08T12:15:20;18.20;99.90
11067;DHT22;29763;50.904;5.530;2023-04-08T12:17:46;18.00;99.90
11067;DHT22;29763;50.904;5.530;2023-04-08T12:20:12;18.70;99.90
11067;DHT22;29763;50.904;5.530;2023-04-08T12:22:38;19.80;99.90
11067;DHT22;29763;50.904;5.530;2023-04-08T12:25:04;20.30;99.90
11067;DHT22;29763;50.904;5.530;2023-04-08T12:27:31;20.80;99.90
11067;DHT22;29763;50.904;5.530;2023-04-08T12:30:00;20.70;99.90
11067;DHT22;29763;50.904;5.530;2023-04-08T12:32:27;20.10;99.90
11067;DHT22;29763;50.904;5.530;2023-04-08T12:34:53;19.30;99.90
11067;DHT22;29763;50.904;5.530;2023-04-08T12:37:18;18.70;99.90
11067;DHT22;29763;50.904;5.530;2023-04-08T12:39:47;18.70;99.90
11067;DHT22;29763;50.904;5.530;2023-04-08T12:42:14;18.30;99.90
11067;DHT22;29763;50.904;5.530;2023-04-08T12:44:40;17.50;99.90
11067;DHT22;29763;50.904;5.530;2023-04-08T12:47:05;17.00;99.90
11067;DHT22;29763;50.904;5.530;2023-04-08T12:49:31;16.80;99.90
11067;DHT22;29763;50.904;5.530;2023-04-08T12:52:00;17.10;99.90
11067;DHT22;29763;50.904;5.530;2023-04-08T12:54:26;17.60;99.90
11067;DHT22;29763;50.904;5.530;2023-04-08T12:56:51;17.90;99.90
11067;DHT22;29763;50.904;5.530;2023-04-08T12:59:17;17.70;99.90
11067;DHT22;29763;50.904;5.530;2023-04-08T13:01:43;17.70;99.90
11067;DHT22;29763;50.904;5.530;2023-04-08T13:04:09;17.10;99.90
11067;DHT22;29763;50.904;5.530;2023-04-08T13:06:35;16.70;99.90
11067;DHT22;29763;50.904;5.530;2023-04-08T13:09:00;16.20;99.90
11067;DHT22;29763;50.904;5.530;2023-04-08T13:11:27;16.10;99.90
11067;DHT22;29763;50.904;5.530;2023-04-08T13:13:53;15.40;99.90
11067;DHT22;29763;50.904;5.530;2023-04-08T13:16:18;15.50;99.90
11067;DHT22;29763;50.904;5.530;2023-04-08T13:18:44;15.20;99.90
11067;DHT22;29763;50.904;5.530;2023-04-08T13:21:11;15.10;99.90
11067;DHT22;29763;50.904;5.530;2023-04-08T13:23:36;14.90;99.90
11067;DHT22;29763;50.904;5.530;2023-04-08T13:26:02;14.80;99.90
11067;DHT22;29763;50.904;5.530;2023-04-08T13:28:28;15.10;99.90
11067;DHT22;29763;50.904;5.530;2023-04-08T13:30:54;15.70;99.90
11067;DHT22;29763;50.904;5.530;2023-04-08T13:33:20;16.40;99.90
11067;DHT22;29763;50.904;5.530;2023-04-08T13:35:46;17.10;99.90
11067;DHT22;29763;50.904;5.530;2023-04-08T13:38:12;17.30;99.90
11067;DHT22;29763;50.904;5.530;2023-04-08T13:40:38;17.70;99.90
11067;DHT22;29763;50.904;5.530;2023-04-08T13:43:04;18.40;99.90
11067;DHT22;29763;50.904;5.530;2023-04-08T13:45:30;18.80;99.90
11067;DHT22;29763;50.904;5.530;2023-04-08T13:47:56;19.30;99.90
11067;DHT22;29763;50.904;5.530;2023-04-08T13:50:22;19.50;99.90
11067;DHT22;29763;50.904;5.530;2023-04-08T13:52:48;20.00;99.90
11067;DHT22;29763;50.904;5.530;2023-04-08T13:55:14;19.70;99.90
11067;DHT22;29763;50.904;5.530;2023-04-08T13:57:40;18.70;99.90
11067;DHT22;29763;50.904;5.530;2023-04-08T14:00:06;18.40;99.90
11067;DHT22;29763;50.904;5.530;2023-04-08T14:02:32;18.40;99.90
11067;DHT22;29763;50.904;5.530;2023-04-08T14:04:58;18.40;99.90
11067;DHT22;29763;50.904;5.530;2023-04-08T14:07:24;18.90;99.90
11067;DHT22;29763;50.904;5.530;2023-04-08T14:09:49;19.50;99.90
11067;DHT22;29763;50.904;5.530;2023-04-08T14:12:15;19.20;99.90
11067;DHT22;29763;50.904;5.530;2023-04-08T14:14:41;18.90;99.90
11067;DHT22;29763;50.904;5.530;2023-04-08T14:17:07;18.70;99.90
11067;DHT22;29763;50.904;5.530;2023-04-08T14:19:32;18.30;99.90
11067;DHT22;29763;50.904;5.530;2023-04-08T14:21:58;18.50;99.90
11067;DHT22;29763;50.904;5.530;2023-04-08T14:24:24;18.40;99.90
11067;DHT22;29763;50.904;5.530;2023-04-08T14:26:49;17.80;99.90
11067;DHT22;29763;50.904;5.530;2023-04-08T14:29:15;17.20;99.90
11067;DHT22;29763;50.904;5.530;2023-04-08T14:31:41;17.30;99.90
11067;DHT22;29763;50.904;5.530;2023-04-08T14:34:07;17.10;99.90
11067;DHT22;29763;50.904;5.530;2023-04-08T14:36:32;17.50;99.90
11067;DHT22;29763;50.904;5.530;2023-04-08T14:38:58;18.00;99.90
11067;DHT22;29763;50.904;5.530;2023-04-08T14:41:24;18.10;99.90
11067;DHT22;29763;50.904;5.530;2023-04-08T14:43:51;17.40;99.90
11067;DHT22;29763;50.904;5.530;2023-04-08T14:46:18;17.20;99.90
11067;DHT22;29763;50.904;5.530;2023-04-08T14:48:44;16.90;99.90
11067;DHT22;29763;50.904;5.530;2023-04-08T14:51:10;16.60;99.90
11067;DHT22;29763;50.904;5.530;2023-04-08T14:53:35;16.50;99.90
11067;DHT22;29763;50.904;5.530;2023-04-08T14:56:01;16.20;99.90
11067;DHT22;29763;50.904;5.530;2023-04-08T14:58:27;15.90;99.90
11067;DHT22;29763;50.904;5.530;2023-04-08T15:00:56;15.70;99.90
11067;DHT22;29763;50.904;5.530;2023-04-08T15:03:22;15.90;99.90
11067;DHT22;29763;50.904;5.530;2023-04-08T15:05:47;15.60;99.90
11067;DHT22;29763;50.904;5.530;2023-04-08T15:08:14;15.40;99.90
11067;DHT22;29763;50.904;5.530;2023-04-08T15:10:40;15.50;99.90
11067;DHT22;29763;50.904;5.530;2023-04-08T15:13:06;15.70;99.90
11067;DHT22;29763;50.904;5.530;2023-04-08T15:15:31;15.90;99.90
11067;DHT22;29763;50.904;5.530;2023-04-08T15:17:57;15.70;99.90
11067;DHT22;29763;50.904;5.530;2023-04-08T15:20:26;15.80;99.90
11067;DHT22;29763;50.904;5.530;2023-04-08T15:22:52;16.00;99.90
11067;DHT22;29763;50.904;5.530;2023-04-08T15:25:18;16.20;99.90
11067;DHT22;29763;50.904;5.530;2023-04-08T15:27:44;16.40;99.60
11067;DHT22;29763;50.904;5.530;2023-04-08T15:30:10;16.30;99.20
11067;DHT22;29763;50.904;5.530;2023-04-08T15:32:36;16.50;99.70
11067;DHT22;29763;50.904;5.530;2023-04-08T15:35:02;16.60;99.90
11067;DHT22;29763;50.904;5.530;2023-04-08T15:37:27;16.60;99.90
11067;DHT22;29763;50.904;5.530;2023-04-08T15:39:53;16.20;99.90
11067;DHT22;29763;50.904;5.530;2023-04-08T15:42:20;16.10;99.90
11067;DHT22;29763;50.904;5.530;2023-04-08T15:44:46;16.30;99.90
11067;DHT22;29763;50.904;5.530;2023-04-08T15:47:12;16.40;99.90
11067;DHT22;29763;50.904;5.530;2023-04-08T15:49:38;16.60;99.90
11067;DHT22;29763;50.904;5.530;2023-04-08T15:52:04;16.50;99.90